sensor_id;sensor_type;location;lat;lon;timestamp;P1;durP1;ratioP1;P2;durP2;ratioP2
22673;SDS011;11504;43.334;21.918;2022-08-03T00:00:38;10.0;;;9.0;;
22673;SDS011;11504;43.334;21.918;2022-08-03T00:05:15;10.0;;;9.0;;
22673;SDS011;11504;43.334;21.918;2022-08-03T00:09:51;9.0;;;8.0;;
22673;SDS011;11504;43.334;21.918;2022-08-03T00:14:27;9.0;;;8.0;;
22673;SDS011;11504;43.334;21.918;2022-08-03T00:19:04;9.0;;;8.0;;
22673;SDS011;11504;43.334;21.918;2022-08-03T00:23:40;8.0;;;8.0;;
22673;SDS011;11504;43.334;21.918;2022-08-03T00:28:16;8.0;;;8.0;;
22673;SDS011;11504;43.334;21.918;2022-08-03T00:32:52;8.0;;;8.0;;
22673;SDS011;11504;43.334;21.918;2022-08-03T00:37:28;8.0;;;8.0;;
22673;SDS011;11504;43.334;21.918;2022-08-03T00:42:06;8.0;;;8.0;;
22673;SDS011;11504;43.334;21.918;2022-08-03T00:46:42;8.0;;;8.0;;
22673;SDS011;11504;43.334;21.918;2022-08-03T00:51:21;8.0;;;8.0;;
22673;SDS011;11504;43.334;21.918;2022-08-03T00:55:58;8.0;;;8.0;;
22673;SDS011;11504;43.334;21.918;2022-08-03T01:00:39;9.0;;;9.0;;
22673;SDS011;11504;43.334;21.918;2022-08-03T01:05:16;9.0;;;9.0;;
22673;SDS011;11504;43.334;21.918;2022-08-03T01:10:03;9.0;;;9.0;;
22673;SDS011;11504;43.334;21.918;2022-08-03T01:14:58;9.0;;;9.0;;
22673;SDS011;11504;43.334;21.918;2022-08-03T01:30:05;9.0;;;9.0;;
22673;SDS011;11504;43.334;21.918;2022-08-03T01:34:58;9.0;;;9.0;;
22673;SDS011;11504;43.334;21.918;2022-08-03T01:39:45;9.0;;;9.0;;
22673;SDS011;11504;43.334;21.918;2022-08-03T01:44:36;9.0;;;9.0;;
22673;SDS011;11504;43.334;21.918;2022-08-03T01:49:24;8.0;;;8.0;;
22673;SDS011;11504;43.334;21.918;2022-08-03T01:54:16;8.0;;;8.0;;
22673;SDS011;11504;43.334;21.918;2022-08-03T01:59:03;8.0;;;8.0;;
22673;SDS011;11504;43.334;21.918;2022-08-03T02:03:51;8.0;;;8.0;;
22673;SDS011;11504;43.334;21.918;2022-08-03T02:08:39;8.0;;;8.0;;
22673;SDS011;11504;43.334;21.918;2022-08-03T02:13:32;10.0;;;9.0;;
22673;SDS011;11504;43.334;21.918;2022-08-03T02:18:15;10.0;;;9.0;;
22673;SDS011;11504;43.334;21.918;2022-08-03T02:22:58;11.0;;;10.0;;
22673;SDS011;11504;43.334;21.918;2022-08-03T02:27:49;11.0;;;10.0;;
22673;SDS011;11504;43.334;21.918;2022-08-03T02:32:58;10.0;;;9.0;;
22673;SDS011;11504;43.334;21.918;2022-08-03T02:37:51;10.0;;;9.0;;
22673;SDS011;11504;43.334;21.918;2022-08-03T02:42:46;9.0;;;8.0;;
22673;SDS011;11504;43.334;21.918;2022-08-03T02:47:39;9.0;;;8.0;;
22673;SDS011;11504;43.334;21.918;2022-08-03T02:52:29;9.0;;;8.0;;
22673;SDS011;11504;43.334;21.918;2022-08-03T02:57:14;9.0;;;8.0;;
22673;SDS011;11504;43.334;21.918;2022-08-03T03:01:54;9.0;;;9.0;;
22673;SDS011;11504;43.334;21.918;2022-08-03T03:06:37;9.0;;;9.0;;
22673;SDS011;11504;43.334;21.918;2022-08-03T03:11:20;9.0;;;8.0;;
22673;SDS011;11504;43.334;21.918;2022-08-03T03:16:04;9.0;;;8.0;;
22673;SDS011;11504;43.334;21.918;2022-08-03T03:20:42;9.0;;;8.0;;
22673;SDS011;11504;43.334;21.918;2022-08-03T03:25:23;9.0;;;8.0;;
22673;SDS011;11504;43.334;21.918;2022-08-03T03:30:03;8.0;;;7.0;;
22673;SDS011;11504;43.334;21.918;2022-08-03T03:34:42;8.0;;;7.0;;
22673;SDS011;11504;43.334;21.918;2022-08-03T03:39:20;7.0;;;6.0;;
22673;SDS011;11504;43.334;21.918;2022-08-03T03:43:57;7.0;;;6.0;;
22673;SDS011;11504;43.334;21.918;2022-08-03T03:48:34;7.0;;;6.0;;
22673;SDS011;11504;43.334;21.918;2022-08-03T03:53:13;8.0;;;8.0;;
22673;SDS011;11504;43.334;21.918;2022-08-03T03:57:50;8.0;;;8.0;;
22673;SDS011;11504;43.334;21.918;2022-08-03T04:02:26;10.0;;;9.0;;
22673;SDS011;11504;43.334;21.918;2022-08-03T04:07:03;10.0;;;9.0;;
22673;SDS011;11504;43.334;21.918;2022-08-03T04:11:50;10.0;;;9.0;;
22673;SDS011;11504;43.334;21.918;2022-08-03T04:16:40;10.0;;;9.0;;
22673;SDS011;11504;43.334;21.918;2022-08-03T04:31:05;11.0;;;10.0;;
22673;SDS011;11504;43.334;21.918;2022-08-03T04:35:57;11.0;;;10.0;;
22673;SDS011;11504;43.334;21.918;2022-08-03T04:40:46;11.0;;;10.0;;
22673;SDS011;11504;43.334;21.918;2022-08-03T04:45:33;11.0;;;10.0;;
22673;SDS011;11504;43.334;21.918;2022-08-03T04:50:15;10.0;;;9.0;;
22673;SDS011;11504;43.334;21.918;2022-08-03T04:54:54;10.0;;;9.0;;
22673;SDS011;11504;43.334;21.918;2022-08-03T04:59:30;9.0;;;8.0;;
22673;SDS011;11504;43.334;21.918;2022-08-03T05:04:08;9.0;;;8.0;;
22673;SDS011;11504;43.334;21.918;2022-08-03T05:08:45;9.0;;;8.0;;
22673;SDS011;11504;43.334;21.918;2022-08-03T05:13:22;8.0;;;8.0;;
22673;SDS011;11504;43.334;21.918;2022-08-03T05:17:58;8.0;;;8.0;;
22673;SDS011;11504;43.334;21.918;2022-08-03T05:22:35;8.0;;;7.0;;
22673;SDS011;11504;43.334;21.918;2022-08-03T05:27:12;8.0;;;7.0;;
22673;SDS011;11504;43.334;21.918;2022-08-03T05:31:49;8.0;;;7.0;;
22673;SDS011;11504;43.334;21.918;2022-08-03T05:36:25;8.0;;;7.0;;
22673;SDS011;11504;43.334;21.918;2022-08-03T05:41:03;8.0;;;7.0;;
22673;SDS011;11504;43.334;21.918;2022-08-03T05:45:40;8.0;;;7.0;;
22673;SDS011;11504;43.334;21.918;2022-08-03T05:50:19;8.0;;;7.0;;
22673;SDS011;11504;43.334;21.918;2022-08-03T05:54:56;8.0;;;7.0;;
22673;SDS011;11504;43.334;21.918;2022-08-03T05:59:32;7.0;;;7.0;;
22673;SDS011;11504;43.334;21.918;2022-08-03T06:04:08;7.0;;;7.0;;
22673;SDS011;11504;43.334;21.918;2022-08-03T06:08:45;7.0;;;7.0;;
22673;SDS011;11504;43.334;21.918;2022-08-03T06:13:22;7.0;;;7.0;;
22673;SDS011;11504;43.334;21.918;2022-08-03T06:17:59;7.0;;;7.0;;
22673;SDS011;11504;43.334;21.918;2022-08-03T06:31:48;7.0;;;6.0;;
22673;SDS011;11504;43.334;21.918;2022-08-03T06:36:24;7.0;;;6.0;;
22673;SDS011;11504;43.334;21.918;2022-08-03T06:41:00;7.0;;;6.0;;
22673;SDS011;11504;43.334;21.918;2022-08-03T06:45:36;7.0;;;6.0;;
22673;SDS011;11504;43.334;21.918;2022-08-03T06:50:13;8.0;;;7.0;;
22673;SDS011;11504;43.334;21.918;2022-08-03T06:54:49;8.0;;;7.0;;
22673;SDS011;11504;43.334;21.918;2022-08-03T06:59:26;8.0;;;7.0;;
22673;SDS011;11504;43.334;21.918;2022-08-03T07:04:02;9.0;;;8.0;;
22673;SDS011;11504;43.334;21.918;2022-08-03T07:08:39;9.0;;;8.0;;
22673;SDS011;11504;43.334;21.918;2022-08-03T07:13:15;10.0;;;9.0;;
22673;SDS011;11504;43.334;21.918;2022-08-03T07:17:51;10.0;;;9.0;;
22673;SDS011;11504;43.334;21.918;2022-08-03T07:22:28;10.0;;;10.0;;
22673;SDS011;11504;43.334;21.918;2022-08-03T07:27:05;10.0;;;10.0;;
22673;SDS011;11504;43.334;21.918;2022-08-03T07:31:42;10.0;;;10.0;;
22673;SDS011;11504;43.334;21.918;2022-08-03T07:36:19;10.0;;;10.0;;
22673;SDS011;11504;43.334;21.918;2022-08-03T07:50:10;10.0;;;10.0;;
22673;SDS011;11504;43.334;21.918;2022-08-03T07:54:47;10.0;;;10.0;;
22673;SDS011;11504;43.334;21.918;2022-08-03T07:59:23;10.0;;;10.0;;
22673;SDS011;11504;43.334;21.918;2022-08-03T08:03:59;10.0;;;10.0;;
22673;SDS011;11504;43.334;21.918;2022-08-03T08:08:38;10.0;;;10.0;;
22673;SDS011;11504;43.334;21.918;2022-08-03T08:13:15;10.0;;;10.0;;
22673;SDS011;11504;43.334;21.918;2022-08-03T08:17:57;10.0;;;10.0;;
22673;SDS011;11504;43.334;21.918;2022-08-03T08:22:34;9.0;;;9.0;;
22673;SDS011;11504;43.334;21.918;2022-08-03T08:27:10;9.0;;;9.0;;
22673;SDS011;11504;43.334;21.918;2022-08-03T08:31:46;8.0;;;8.0;;
22673;SDS011;11504;43.334;21.918;2022-08-03T08:36:23;8.0;;;8.0;;
22673;SDS011;11504;43.334;21.918;2022-08-03T08:41:00;8.0;;;8.0;;
22673;SDS011;11504;43.334;21.918;2022-08-03T08:45:37;8.0;;;8.0;;
22673;SDS011;11504;43.334;21.918;2022-08-03T08:50:21;8.0;;;8.0;;
22673;SDS011;11504;43.334;21.918;2022-08-03T08:55:04;8.0;;;8.0;;
22673;SDS011;11504;43.334;21.918;2022-08-03T09:13:35;9.0;;;8.0;;
22673;SDS011;11504;43.334;21.918;2022-08-03T09:18:12;9.0;;;8.0;;
22673;SDS011;11504;43.334;21.918;2022-08-03T09:23:01;9.0;;;8.0;;
22673;SDS011;11504;43.334;21.918;2022-08-03T09:27:44;9.0;;;8.0;;
22673;SDS011;11504;43.334;21.918;2022-08-03T09:32:24;9.0;;;8.0;;
22673;SDS011;11504;43.334;21.918;2022-08-03T09:37:00;9.0;;;8.0;;
22673;SDS011;11504;43.334;21.918;2022-08-03T09:51:04;10.0;;;9.0;;
22673;SDS011;11504;43.334;21.918;2022-08-03T09:55:56;10.0;;;9.0;;
22673;SDS011;11504;43.334;21.918;2022-08-03T10:00:59;10.0;;;9.0;;
22673;SDS011;11504;43.334;21.918;2022-08-03T10:05:37;10.0;;;9.0;;
22673;SDS011;11504;43.334;21.918;2022-08-03T10:10:17;10.0;;;9.0;;
22673;SDS011;11504;43.334;21.918;2022-08-03T10:14:55;10.0;;;9.0;;
22673;SDS011;11504;43.334;21.918;2022-08-03T10:19:33;10.0;;;9.0;;
22673;SDS011;11504;43.334;21.918;2022-08-03T10:24:22;10.0;;;9.0;;
22673;SDS011;11504;43.334;21.918;2022-08-03T10:29:19;10.0;;;9.0;;
22673;SDS011;11504;43.334;21.918;2022-08-03T10:34:08;10.0;;;8.0;;
22673;SDS011;11504;43.334;21.918;2022-08-03T10:38:59;10.0;;;8.0;;
22673;SDS011;11504;43.334;21.918;2022-08-03T10:43:55;9.0;;;8.0;;
22673;SDS011;11504;43.334;21.918;2022-08-03T10:48:44;9.0;;;8.0;;
22673;SDS011;11504;43.334;21.918;2022-08-03T10:53:36;9.0;;;8.0;;
22673;SDS011;11504;43.334;21.918;2022-08-03T10:58:52;9.0;;;8.0;;
22673;SDS011;11504;43.334;21.918;2022-08-03T11:03:29;9.0;;;8.0;;
22673;SDS011;11504;43.334;21.918;2022-08-03T11:08:32;9.0;;;8.0;;
22673;SDS011;11504;43.334;21.918;2022-08-03T11:13:18;9.0;;;8.0;;
22673;SDS011;11504;43.334;21.918;2022-08-03T11:18:13;9.0;;;8.0;;
22673;SDS011;11504;43.334;21.918;2022-08-03T11:32:09;7.0;;;7.0;;
22673;SDS011;11504;43.334;21.918;2022-08-03T11:39:14;7.0;;;7.0;;
22673;SDS011;11504;43.334;21.918;2022-08-03T11:43:51;7.0;;;7.0;;
22673;SDS011;11504;43.334;21.918;2022-08-03T11:48:39;7.0;;;7.0;;
22673;SDS011;11504;43.334;21.918;2022-08-03T11:53:20;6.0;;;6.0;;
22673;SDS011;11504;43.334;21.918;2022-08-03T11:57:58;6.0;;;6.0;;
22673;SDS011;11504;43.334;21.918;2022-08-03T12:02:34;6.0;;;6.0;;
22673;SDS011;11504;43.334;21.918;2022-08-03T12:07:10;6.0;;;6.0;;
22673;SDS011;11504;43.334;21.918;2022-08-03T12:11:48;6.0;;;6.0;;
22673;SDS011;11504;43.334;21.918;2022-08-03T12:16:25;6.0;;;6.0;;
22673;SDS011;11504;43.334;21.918;2022-08-03T12:21:06;6.0;;;6.0;;
22673;SDS011;11504;43.334;21.918;2022-08-03T12:25:47;6.0;;;6.0;;
22673;SDS011;11504;43.334;21.918;2022-08-03T12:30:23;6.0;;;6.0;;
22673;SDS011;11504;43.334;21.918;2022-08-03T12:35:00;6.0;;;6.0;;
22673;SDS011;11504;43.334;21.918;2022-08-03T12:39:37;6.0;;;6.0;;
22673;SDS011;11504;43.334;21.918;2022-08-03T12:44:14;5.0;;;5.0;;
22673;SDS011;11504;43.334;21.918;2022-08-03T12:49:11;5.0;;;5.0;;
22673;SDS011;11504;43.334;21.918;2022-08-03T12:53:51;5.0;;;5.0;;
22673;SDS011;11504;43.334;21.918;2022-08-03T12:58:35;5.0;;;5.0;;
22673;SDS011;11504;43.334;21.918;2022-08-03T13:03:11;5.0;;;5.0;;
22673;SDS011;11504;43.334;21.918;2022-08-03T13:07:48;5.0;;;5.0;;
22673;SDS011;11504;43.334;21.918;2022-08-03T13:12:27;5.0;;;5.0;;
22673;SDS011;11504;43.334;21.918;2022-08-03T13:17:05;5.0;;;5.0;;
22673;SDS011;11504;43.334;21.918;2022-08-03T13:21:46;5.0;;;5.0;;
22673;SDS011;11504;43.334;21.918;2022-08-03T13:26:22;5.0;;;5.0;;
22673;SDS011;11504;43.334;21.918;2022-08-03T13:31:00;5.0;;;5.0;;
22673;SDS011;11504;43.334;21.918;2022-08-03T13:35:37;5.0;;;5.0;;
22673;SDS011;11504;43.334;21.918;2022-08-03T13:40:14;5.0;;;5.0;;
22673;SDS011;11504;43.334;21.918;2022-08-03T13:44:51;5.0;;;5.0;;
22673;SDS011;11504;43.334;21.918;2022-08-03T13:49:28;5.0;;;5.0;;
22673;SDS011;11504;43.334;21.918;2022-08-03T13:54:05;4.0;;;4.0;;
22673;SDS011;11504;43.334;21.918;2022-08-03T13:58:43;4.0;;;4.0;;
22673;SDS011;11504;43.334;21.918;2022-08-03T14:03:19;4.0;;;4.0;;
22673;SDS011;11504;43.334;21.918;2022-08-03T14:07:56;4.0;;;4.0;;
22673;SDS011;11504;43.334;21.918;2022-08-03T14:12:34;4.0;;;4.0;;
22673;SDS011;11504;43.334;21.918;2022-08-03T14:17:11;4.0;;;4.0;;
22673;SDS011;11504;43.334;21.918;2022-08-03T14:21:47;5.0;;;5.0;;
22673;SDS011;11504;43.334;21.918;2022-08-03T14:26:24;5.0;;;5.0;;
22673;SDS011;11504;43.334;21.918;2022-08-03T14:31:02;6.0;;;5.0;;
22673;SDS011;11504;43.334;21.918;2022-08-03T14:35:40;6.0;;;5.0;;
22673;SDS011;11504;43.334;21.918;2022-08-03T14:40:17;6.0;;;5.0;;
22673;SDS011;11504;43.334;21.918;2022-08-03T14:44:55;6.0;;;5.0;;
22673;SDS011;11504;43.334;21.918;2022-08-03T14:49:32;6.0;;;5.0;;
22673;SDS011;11504;43.334;21.918;2022-08-03T14:54:08;6.0;;;5.0;;
22673;SDS011;11504;43.334;21.918;2022-08-03T14:58:45;6.0;;;5.0;;
22673;SDS011;11504;43.334;21.918;2022-08-03T15:03:24;5.0;;;5.0;;
22673;SDS011;11504;43.334;21.918;2022-08-03T15:08:00;5.0;;;5.0;;
22673;SDS011;11504;43.334;21.918;2022-08-03T15:12:37;5.0;;;4.0;;
22673;SDS011;11504;43.334;21.918;2022-08-03T15:17:13;5.0;;;4.0;;
22673;SDS011;11504;43.334;21.918;2022-08-03T15:21:49;5.0;;;4.0;;
22673;SDS011;11504;43.334;21.918;2022-08-03T15:26:26;5.0;;;4.0;;
22673;SDS011;11504;43.334;21.918;2022-08-03T15:31:04;5.0;;;4.0;;
22673;SDS011;11504;43.334;21.918;2022-08-03T15:35:41;5.0;;;4.0;;
22673;SDS011;11504;43.334;21.918;2022-08-03T15:40:18;5.0;;;5.0;;
22673;SDS011;11504;43.334;21.918;2022-08-03T15:44:55;5.0;;;5.0;;
22673;SDS011;11504;43.334;21.918;2022-08-03T15:49:33;5.0;;;5.0;;
22673;SDS011;11504;43.334;21.918;2022-08-03T15:54:11;5.0;;;5.0;;
22673;SDS011;11504;43.334;21.918;2022-08-03T15:58:48;5.0;;;5.0;;
22673;SDS011;11504;43.334;21.918;2022-08-03T16:03:26;5.0;;;5.0;;
22673;SDS011;11504;43.334;21.918;2022-08-03T16:08:04;5.0;;;5.0;;
22673;SDS011;11504;43.334;21.918;2022-08-03T16:12:43;5.0;;;5.0;;
22673;SDS011;11504;43.334;21.918;2022-08-03T16:17:22;5.0;;;5.0;;
22673;SDS011;11504;43.334;21.918;2022-08-03T16:22:00;5.0;;;5.0;;
22673;SDS011;11504;43.334;21.918;2022-08-03T16:26:36;5.0;;;5.0;;
22673;SDS011;11504;43.334;21.918;2022-08-03T16:31:13;6.0;;;6.0;;
22673;SDS011;11504;43.334;21.918;2022-08-03T16:35:50;6.0;;;6.0;;
22673;SDS011;11504;43.334;21.918;2022-08-03T16:40:26;7.0;;;6.0;;
22673;SDS011;11504;43.334;21.918;2022-08-03T16:45:06;7.0;;;6.0;;
22673;SDS011;11504;43.334;21.918;2022-08-03T16:49:46;7.0;;;6.0;;
22673;SDS011;11504;43.334;21.918;2022-08-03T16:54:23;7.0;;;6.0;;
22673;SDS011;11504;43.334;21.918;2022-08-03T16:59:02;7.0;;;6.0;;
22673;SDS011;11504;43.334;21.918;2022-08-03T17:03:39;7.0;;;7.0;;
22673;SDS011;11504;43.334;21.918;2022-08-03T17:08:17;7.0;;;7.0;;
22673;SDS011;11504;43.334;21.918;2022-08-03T17:12:54;8.0;;;7.0;;
22673;SDS011;11504;43.334;21.918;2022-08-03T17:17:33;8.0;;;7.0;;
22673;SDS011;11504;43.334;21.918;2022-08-03T17:22:30;8.0;;;7.0;;
22673;SDS011;11504;43.334;21.918;2022-08-03T17:27:37;8.0;;;7.0;;
22673;SDS011;11504;43.334;21.918;2022-08-03T17:32:25;8.0;;;8.0;;
22673;SDS011;11504;43.334;21.918;2022-08-03T17:37:12;8.0;;;8.0;;
22673;SDS011;11504;43.334;21.918;2022-08-03T17:41:51;9.0;;;9.0;;
22673;SDS011;11504;43.334;21.918;2022-08-03T17:46:28;9.0;;;9.0;;
22673;SDS011;11504;43.334;21.918;2022-08-03T17:51:14;8.0;;;8.0;;
22673;SDS011;11504;43.334;21.918;2022-08-03T17:56:32;8.0;;;8.0;;
22673;SDS011;11504;43.334;21.918;2022-08-03T18:01:50;8.0;;;7.0;;
22673;SDS011;11504;43.334;21.918;2022-08-03T18:07:27;8.0;;;7.0;;
22673;SDS011;11504;43.334;21.918;2022-08-03T18:12:27;8.0;;;8.0;;
22673;SDS011;11504;43.334;21.918;2022-08-03T18:17:40;8.0;;;8.0;;
22673;SDS011;11504;43.334;21.918;2022-08-03T18:22:39;8.0;;;8.0;;
22673;SDS011;11504;43.334;21.918;2022-08-03T18:27:19;8.0;;;8.0;;
22673;SDS011;11504;43.334;21.918;2022-08-03T18:32:00;10.0;;;10.0;;
22673;SDS011;11504;43.334;21.918;2022-08-03T18:36:46;10.0;;;10.0;;
22673;SDS011;11504;43.334;21.918;2022-08-03T18:41:24;11.0;;;11.0;;
22673;SDS011;11504;43.334;21.918;2022-08-03T18:46:05;11.0;;;11.0;;
22673;SDS011;11504;43.334;21.918;2022-08-03T18:51:38;11.0;;;11.0;;
22673;SDS011;11504;43.334;21.918;2022-08-03T18:56:30;11.0;;;11.0;;
22673;SDS011;11504;43.334;21.918;2022-08-03T19:01:37;11.0;;;11.0;;
22673;SDS011;11504;43.334;21.918;2022-08-03T19:06:30;11.0;;;11.0;;
22673;SDS011;11504;43.334;21.918;2022-08-03T19:11:25;10.0;;;10.0;;
22673;SDS011;11504;43.334;21.918;2022-08-03T19:16:22;10.0;;;10.0;;
22673;SDS011;11504;43.334;21.918;2022-08-03T19:21:13;9.0;;;8.0;;
22673;SDS011;11504;43.334;21.918;2022-08-03T19:25:52;9.0;;;8.0;;
22673;SDS011;11504;43.334;21.918;2022-08-03T19:30:33;10.0;;;8.0;;
22673;SDS011;11504;43.334;21.918;2022-08-03T19:35:15;10.0;;;8.0;;
22673;SDS011;11504;43.334;21.918;2022-08-03T19:39:52;10.0;;;8.0;;
22673;SDS011;11504;43.334;21.918;2022-08-03T19:44:30;10.0;;;9.0;;
22673;SDS011;11504;43.334;21.918;2022-08-03T19:49:23;10.0;;;9.0;;
22673;SDS011;11504;43.334;21.918;2022-08-03T19:54:15;10.0;;;9.0;;
22673;SDS011;11504;43.334;21.918;2022-08-03T19:58:58;10.0;;;9.0;;
22673;SDS011;11504;43.334;21.918;2022-08-03T20:03:37;10.0;;;9.0;;
22673;SDS011;11504;43.334;21.918;2022-08-03T20:08:17;10.0;;;9.0;;
22673;SDS011;11504;43.334;21.918;2022-08-03T20:12:57;12.0;;;11.0;;
22673;SDS011;11504;43.334;21.918;2022-08-03T20:17:37;12.0;;;11.0;;
22673;SDS011;11504;43.334;21.918;2022-08-03T20:22:15;14.0;;;13.0;;
22673;SDS011;11504;43.334;21.918;2022-08-03T20:27:03;14.0;;;13.0;;
22673;SDS011;11504;43.334;21.918;2022-08-03T20:31:54;12.0;;;10.0;;
22673;SDS011;11504;43.334;21.918;2022-08-03T20:36:31;12.0;;;10.0;;
22673;SDS011;11504;43.334;21.918;2022-08-03T20:41:10;9.0;;;8.0;;
22673;SDS011;11504;43.334;21.918;2022-08-03T20:45:48;9.0;;;8.0;;
22673;SDS011;11504;43.334;21.918;2022-08-03T20:50:27;8.0;;;8.0;;
22673;SDS011;11504;43.334;21.918;2022-08-03T20:55:06;8.0;;;8.0;;
22673;SDS011;11504;43.334;21.918;2022-08-03T20:59:45;8.0;;;8.0;;
22673;SDS011;11504;43.334;21.918;2022-08-03T21:04:24;8.0;;;8.0;;
22673;SDS011;11504;43.334;21.918;2022-08-03T21:09:03;8.0;;;8.0;;
22673;SDS011;11504;43.334;21.918;2022-08-03T21:13:51;8.0;;;8.0;;
22673;SDS011;11504;43.334;21.918;2022-08-03T21:18:58;8.0;;;8.0;;
22673;SDS011;11504;43.334;21.918;2022-08-03T21:23:42;8.0;;;7.0;;
22673;SDS011;11504;43.334;21.918;2022-08-03T21:28:30;8.0;;;7.0;;
22673;SDS011;11504;43.334;21.918;2022-08-03T21:33:13;8.0;;;7.0;;
22673;SDS011;11504;43.334;21.918;2022-08-03T21:37:52;8.0;;;7.0;;
22673;SDS011;11504;43.334;21.918;2022-08-03T21:42:30;8.0;;;7.0;;
22673;SDS011;11504;43.334;21.918;2022-08-03T21:47:09;8.0;;;7.0;;
22673;SDS011;11504;43.334;21.918;2022-08-03T21:51:51;8.0;;;7.0;;
22673;SDS011;11504;43.334;21.918;2022-08-03T21:56:41;8.0;;;7.0;;
22673;SDS011;11504;43.334;21.918;2022-08-03T22:01:30;8.0;;;7.0;;
22673;SDS011;11504;43.334;21.918;2022-08-03T22:06:16;8.0;;;7.0;;
22673;SDS011;11504;43.334;21.918;2022-08-03T22:10:54;8.0;;;8.0;;
22673;SDS011;11504;43.334;21.918;2022-08-03T22:15:32;8.0;;;8.0;;
22673;SDS011;11504;43.334;21.918;2022-08-03T22:20:11;8.0;;;8.0;;
22673;SDS011;11504;43.334;21.918;2022-08-03T22:24:56;9.0;;;8.0;;
22673;SDS011;11504;43.334;21.918;2022-08-03T22:29:44;9.0;;;8.0;;
22673;SDS011;11504;43.334;21.918;2022-08-03T22:34:27;8.0;;;8.0;;
22673;SDS011;11504;43.334;21.918;2022-08-03T22:39:04;8.0;;;8.0;;
22673;SDS011;11504;43.334;21.918;2022-08-03T22:43:42;8.0;;;8.0;;
22673;SDS011;11504;43.334;21.918;2022-08-03T22:48:20;8.0;;;8.0;;
22673;SDS011;11504;43.334;21.918;2022-08-03T22:53:00;8.0;;;8.0;;
22673;SDS011;11504;43.334;21.918;2022-08-03T22:57:37;8.0;;;8.0;;
22673;SDS011;11504;43.334;21.918;2022-08-03T23:02:18;8.0;;;8.0;;
22673;SDS011;11504;43.334;21.918;2022-08-03T23:07:01;8.0;;;8.0;;
22673;SDS011;11504;43.334;21.918;2022-08-03T23:11:47;8.0;;;8.0;;
22673;SDS011;11504;43.334;21.918;2022-08-03T23:16:29;8.0;;;8.0;;
22673;SDS011;11504;43.334;21.918;2022-08-03T23:21:20;8.0;;;8.0;;
22673;SDS011;11504;43.334;21.918;2022-08-03T23:26:02;8.0;;;8.0;;
22673;SDS011;11504;43.334;21.918;2022-08-03T23:30:43;8.0;;;8.0;;
22673;SDS011;11504;43.334;21.918;2022-08-03T23:35:24;8.0;;;8.0;;
22673;SDS011;11504;43.334;21.918;2022-08-03T23:40:03;8.0;;;8.0;;
22673;SDS011;11504;43.334;21.918;2022-08-03T23:44:52;8.0;;;8.0;;
22673;SDS011;11504;43.334;21.918;2022-08-03T23:49:41;8.0;;;8.0;;
22673;SDS011;11504;43.334;21.918;2022-08-03T23:54:34;8.0;;;8.0;;
